createdAt,value
2017-12-27T00:01:01.349Z,990
2017-12-27T00:02:03.753Z,990
2017-12-27T00:03:06.162Z,990
2017-12-27T00:04:08.573Z,990
2017-12-27T00:05:10.992Z,990
2017-12-27T00:06:13.386Z,990
2017-12-27T00:07:15.804Z,989.9
2017-12-27T00:08:18.207Z,989.9
2017-12-27T00:09:20.611Z,989.9
2017-12-27T00:10:23.026Z,989.9
2017-12-27T00:11:25.430Z,989.9
2017-12-27T00:12:28.120Z,989.9
2017-12-27T00:13:30.537Z,989.9
2017-12-27T00:14:32.937Z,989.8
2017-12-27T00:15:35.341Z,989.8
2017-12-27T00:16:38.038Z,989.8
2017-12-27T00:17:40.451Z,989.9
2017-12-27T00:18:42.861Z,989.8
2017-12-27T00:19:45.278Z,989.8
2017-12-27T00:20:47.688Z,989.8
2017-12-27T00:21:50.106Z,989.8
2017-12-27T00:22:52.807Z,989.7
2017-12-27T00:23:55.200Z,989.7
2017-12-27T00:24:57.607Z,989.7
2017-12-27T00:26:00.014Z,989.7
2017-12-27T00:27:02.424Z,989.7
2017-12-27T00:28:04.835Z,989.7
2017-12-27T00:29:07.225Z,989.7
2017-12-27T00:30:09.635Z,989.6
2017-12-27T00:31:12.054Z,989.7
2017-12-27T00:32:14.457Z,989.6
2017-12-27T00:33:16.869Z,989.6
2017-12-27T00:34:19.276Z,989.6
2017-12-27T00:35:21.680Z,989.7
2017-12-27T00:36:24.098Z,989.6
2017-12-27T00:37:26.502Z,989.6
2017-12-27T00:38:28.901Z,989.6
2017-12-27T00:39:31.314Z,989.6
2017-12-27T00:40:33.733Z,989.6
2017-12-27T00:41:36.142Z,989.6
2017-12-27T00:42:38.547Z,989.6
2017-12-27T00:43:40.959Z,989.7
2017-12-27T00:44:43.645Z,989.6
2017-12-27T00:45:46.337Z,989.6
2017-12-27T00:46:48.750Z,989.6
2017-12-27T00:47:51.154Z,989.5
2017-12-27T00:48:53.575Z,989.4
2017-12-27T00:49:55.976Z,989.5
2017-12-27T00:50:58.386Z,989.5
2017-12-27T00:52:00.800Z,989.4
2017-12-27T00:53:03.210Z,989.5
2017-12-27T00:54:05.619Z,989.4
2017-12-27T00:55:08.306Z,989.3
2017-12-27T00:56:10.990Z,989.4
2017-12-27T00:57:13.691Z,989.4
2017-12-27T00:58:16.100Z,989.4
2017-12-27T00:59:18.504Z,989.4
2017-12-27T01:00:21.184Z,989.4
2017-12-27T01:01:23.881Z,989.4
2017-12-27T01:02:26.288Z,989.4
2017-12-27T01:03:28.697Z,989.3
2017-12-27T01:04:31.096Z,989.4
2017-12-27T01:05:33.510Z,989.3
2017-12-27T01:06:35.916Z,989.3
2017-12-27T01:07:38.327Z,989.3
2017-12-27T01:08:41.044Z,989.2
2017-12-27T01:09:43.735Z,989.2
2017-12-27T01:10:46.144Z,989.2
2017-12-27T01:11:48.561Z,989.1
2017-12-27T01:12:50.971Z,989.1
2017-12-27T01:13:53.375Z,989.2
2017-12-27T01:14:56.066Z,989.1
2017-12-27T01:15:58.482Z,989.2
2017-12-27T01:17:00.883Z,989.1
2017-12-27T01:18:03.299Z,989.1
2017-12-27T01:19:05.991Z,989.2
2017-12-27T01:20:08.390Z,989.2
2017-12-27T01:21:10.811Z,989.2
2017-12-27T01:22:13.207Z,989.2
2017-12-27T01:23:15.616Z,989.1
2017-12-27T01:24:18.029Z,989.2
2017-12-27T01:25:20.431Z,989
2017-12-27T01:26:22.844Z,989.1
2017-12-27T01:27:25.266Z,989.1
2017-12-27T01:28:27.664Z,989
2017-12-27T01:29:30.356Z,989.1
2017-12-27T01:30:32.766Z,989.1
2017-12-27T01:31:35.169Z,989
2017-12-27T01:32:37.583Z,989.1
2017-12-27T01:33:39.996Z,989
2017-12-27T01:34:42.396Z,989
2017-12-27T01:35:44.814Z,988.9
2017-12-27T01:36:47.219Z,988.9
2017-12-27T01:37:49.633Z,988.9
2017-12-27T01:38:52.038Z,988.9
2017-12-27T01:39:54.446Z,988.8
2017-12-27T01:40:56.851Z,988.8
2017-12-27T01:41:59.253Z,988.8
2017-12-27T01:43:01.667Z,988.7
2017-12-27T01:44:04.421Z,988.8
2017-12-27T01:45:06.821Z,988.7
2017-12-27T01:46:09.229Z,988.7
2017-12-27T01:47:11.642Z,988.7
2017-12-27T01:48:14.045Z,988.7
2017-12-27T01:49:16.445Z,988.7
2017-12-27T01:50:18.854Z,988.7
2017-12-27T01:51:21.260Z,988.7
2017-12-27T01:52:23.671Z,988.7
2017-12-27T01:53:26.367Z,988.7
2017-12-27T01:54:28.756Z,988.6
2017-12-27T01:55:31.167Z,988.7
2017-12-27T01:56:33.892Z,988.7
2017-12-27T01:57:36.301Z,988.8
2017-12-27T01:58:38.709Z,988.7
2017-12-27T01:59:41.394Z,988.8
2017-12-27T02:00:44.076Z,988.7
2017-12-27T02:01:46.502Z,988.7
2017-12-27T02:02:48.910Z,988.7
2017-12-27T02:03:51.597Z,988.7
2017-12-27T02:04:54.004Z,988.6
2017-12-27T02:05:56.407Z,988.6
2017-12-27T02:06:58.815Z,988.6
2017-12-27T02:08:01.227Z,988.6
2017-12-27T02:09:03.681Z,988.6
2017-12-27T02:10:06.084Z,988.7
2017-12-27T02:11:08.495Z,988.6
2017-12-27T02:12:10.893Z,988.6
2017-12-27T02:13:13.310Z,988.6
2017-12-27T02:14:15.714Z,988.5
2017-12-27T02:15:18.127Z,988.5
2017-12-27T02:16:20.531Z,988.5
2017-12-27T02:17:22.939Z,988.5
2017-12-27T02:18:25.340Z,988.5
2017-12-27T02:19:27.750Z,988.6
2017-12-27T02:20:30.145Z,988.6
2017-12-27T02:21:32.558Z,988.5
2017-12-27T02:22:34.973Z,988.5
2017-12-27T02:23:37.379Z,988.5
2017-12-27T02:24:40.071Z,988.5
2017-12-27T02:25:42.482Z,988.5
2017-12-27T02:26:45.168Z,988.4
2017-12-27T02:27:47.588Z,988.5
2017-12-27T02:28:49.993Z,988.4
2017-12-27T02:29:52.398Z,988.4
2017-12-27T02:30:54.806Z,988.4
2017-12-27T02:31:57.508Z,988.3
2017-12-27T02:33:00.492Z,988.3
2017-12-27T02:34:02.916Z,988.3
2017-12-27T02:35:05.306Z,988.2
2017-12-27T02:36:07.721Z,988.2
2017-12-27T02:37:10.123Z,988.2
2017-12-27T02:38:12.533Z,988.1
2017-12-27T02:39:15.229Z,988.1
2017-12-27T02:40:17.641Z,988.1
2017-12-27T02:41:20.050Z,988
2017-12-27T02:42:22.457Z,988
2017-12-27T02:43:24.864Z,988
2017-12-27T02:44:27.285Z,988
2017-12-27T02:45:29.695Z,988
2017-12-27T02:46:32.093Z,988.1
2017-12-27T02:47:34.507Z,988.1
2017-12-27T02:48:36.911Z,988
2017-12-27T02:49:39.324Z,988.1
2017-12-27T02:50:42.024Z,988
2017-12-27T02:51:44.707Z,988
2017-12-27T02:52:47.114Z,987.9
2017-12-27T02:53:49.531Z,988
2017-12-27T02:54:51.928Z,987.9
2017-12-27T02:55:54.618Z,987.9
2017-12-27T02:56:57.023Z,987.9
2017-12-27T02:57:59.430Z,987.9
2017-12-27T02:59:02.132Z,987.8
2017-12-27T03:00:04.546Z,987.8
2017-12-27T03:01:06.955Z,987.8
2017-12-27T03:02:09.361Z,987.8
2017-12-27T03:03:11.770Z,987.8
2017-12-27T03:04:14.175Z,987.8
2017-12-27T03:05:16.581Z,987.8
2017-12-27T03:06:18.981Z,987.8
2017-12-27T03:07:21.382Z,987.8
2017-12-27T03:08:24.082Z,987.8
2017-12-27T03:09:26.492Z,987.9
2017-12-27T03:10:28.898Z,987.9
2017-12-27T03:11:31.307Z,987.9
2017-12-27T03:12:33.711Z,987.8
2017-12-27T03:13:36.111Z,987.8
2017-12-27T03:14:38.517Z,987.8
2017-12-27T03:15:40.928Z,987.7
2017-12-27T03:16:43.342Z,987.6
2017-12-27T03:17:45.732Z,987.6
2017-12-27T03:18:48.150Z,987.5
2017-12-27T03:19:50.562Z,987.6
2017-12-27T03:20:53.249Z,987.6
2017-12-27T03:21:55.655Z,987.6
2017-12-27T03:22:58.057Z,987.6
2017-12-27T03:24:00.457Z,987.6
2017-12-27T03:25:02.874Z,987.6
2017-12-27T03:26:05.277Z,987.6
2017-12-27T03:27:07.682Z,987.6
2017-12-27T03:28:10.097Z,987.5
2017-12-27T03:29:12.786Z,987.5
2017-12-27T03:30:15.191Z,987.5
2017-12-27T03:31:17.601Z,987.5
2017-12-27T03:32:19.998Z,987.4
2017-12-27T03:33:22.411Z,987.4
2017-12-27T03:34:24.814Z,987.4
2017-12-27T03:35:27.507Z,987.4
2017-12-27T03:36:29.915Z,987.4
2017-12-27T03:37:32.607Z,987.4
2017-12-27T03:38:35.008Z,987.4
2017-12-27T03:39:37.432Z,987.4
2017-12-27T03:40:40.106Z,987.5
2017-12-27T03:41:42.499Z,987.4
2017-12-27T03:42:44.903Z,987.4
2017-12-27T03:43:47.309Z,987.3
2017-12-27T03:44:49.723Z,987.3
2017-12-27T03:45:52.130Z,987.3
2017-12-27T03:46:54.537Z,987.3
2017-12-27T03:47:56.946Z,987.3
2017-12-27T03:48:59.642Z,987.2
2017-12-27T03:50:02.043Z,987.2
2017-12-27T03:51:04.458Z,987.1
2017-12-27T03:52:07.152Z,987.2
2017-12-27T03:53:09.563Z,987.2
2017-12-27T03:54:11.971Z,987.1
2017-12-27T03:55:14.382Z,987
2017-12-27T03:56:16.783Z,987.1
2017-12-27T03:57:19.196Z,987
2017-12-27T03:58:21.599Z,987
2017-12-27T03:59:24.009Z,987.1
2017-12-27T04:00:26.412Z,987.1
2017-12-27T04:01:29.103Z,987
2017-12-27T04:02:31.506Z,987
2017-12-27T04:03:33.916Z,987
2017-12-27T04:04:36.325Z,987
2017-12-27T04:05:38.730Z,987
2017-12-27T04:06:41.132Z,987
2017-12-27T04:07:43.832Z,987
2017-12-27T04:08:46.234Z,987
2017-12-27T04:09:48.926Z,986.9
2017-12-27T04:10:51.333Z,986.9
2017-12-27T04:11:53.735Z,986.9
2017-12-27T04:12:56.144Z,986.9
2017-12-27T04:13:58.545Z,986.9
2017-12-27T04:15:00.965Z,986.8
2017-12-27T04:16:03.375Z,986.8
2017-12-27T04:17:05.782Z,986.8
2017-12-27T04:18:08.194Z,986.7
2017-12-27T04:19:10.594Z,986.7
2017-12-27T04:20:12.996Z,986.7
2017-12-27T04:21:15.401Z,986.8
2017-12-27T04:22:17.797Z,986.7
2017-12-27T04:23:20.485Z,986.8
2017-12-27T04:24:22.899Z,986.8
2017-12-27T04:25:25.304Z,986.7
2017-12-27T04:26:27.714Z,986.7
2017-12-27T04:27:30.117Z,986.6
2017-12-27T04:28:32.525Z,986.7
2017-12-27T04:29:34.939Z,986.6
2017-12-27T04:30:37.347Z,986.5
2017-12-27T04:31:39.747Z,986.5
2017-12-27T04:32:42.164Z,986.5
2017-12-27T04:33:44.572Z,986.5
2017-12-27T04:34:46.972Z,986.5
2017-12-27T04:35:49.381Z,986.5
2017-12-27T04:36:51.785Z,986.5
2017-12-27T04:37:54.193Z,986.5
2017-12-27T04:38:56.599Z,986.4
2017-12-27T04:39:59.298Z,986.4
2017-12-27T04:41:01.692Z,986.4
2017-12-27T04:42:04.388Z,986.4
2017-12-27T04:43:06.793Z,986.4
2017-12-27T04:44:09.200Z,986.5
2017-12-27T04:45:11.609Z,986.3
2017-12-27T04:46:14.022Z,986.3
2017-12-27T04:47:16.420Z,986.3
2017-12-27T04:48:18.836Z,986.3
2017-12-27T04:49:21.232Z,986.3
2017-12-27T04:50:23.637Z,986.3
2017-12-27T04:51:26.043Z,986.3
2017-12-27T04:52:28.727Z,986.3
2017-12-27T04:53:31.134Z,986.3
2017-12-27T04:54:33.544Z,986.3
2017-12-27T04:55:35.946Z,986.2
2017-12-27T04:56:38.357Z,986.2
2017-12-27T04:57:40.757Z,986.1
2017-12-27T04:58:43.171Z,986.2
2017-12-27T04:59:45.877Z,986.2
2017-12-27T05:00:48.284Z,986.2
2017-12-27T05:01:50.689Z,986.2
2017-12-27T05:02:53.097Z,986.2
2017-12-27T05:03:55.500Z,986.1
2017-12-27T05:04:57.903Z,986.2
2017-12-27T05:06:00.300Z,986.1
2017-12-27T05:07:02.721Z,986.1
2017-12-27T05:08:05.129Z,986.1
2017-12-27T05:09:07.530Z,986.1
2017-12-27T05:10:09.947Z,986.1
2017-12-27T05:11:12.352Z,986.2
2017-12-27T05:12:14.748Z,986.1
2017-12-27T05:13:17.157Z,986.1
2017-12-27T05:14:19.571Z,986.1
2017-12-27T05:15:21.972Z,986.1
2017-12-27T05:16:24.677Z,986.1
2017-12-27T05:17:27.073Z,986.1
2017-12-27T05:18:29.754Z,986.1
2017-12-27T05:19:32.165Z,986
2017-12-27T05:20:34.569Z,986
2017-12-27T05:21:36.982Z,986
2017-12-27T05:22:39.388Z,985.9
2017-12-27T05:23:41.796Z,985.9
2017-12-27T05:24:44.205Z,985.9
2017-12-27T05:25:46.900Z,985.9
2017-12-27T05:26:49.299Z,985.9
2017-12-27T05:27:51.713Z,985.8
2017-12-27T05:28:54.411Z,985.8
2017-12-27T05:29:56.828Z,985.8
2017-12-27T05:30:59.219Z,985.8
2017-12-27T05:32:01.637Z,985.7
2017-12-27T05:33:04.034Z,985.7
2017-12-27T05:34:06.453Z,985.7
2017-12-27T05:35:08.851Z,985.6
2017-12-27T05:36:11.309Z,985.6
2017-12-27T05:37:13.665Z,985.7
2017-12-27T05:38:16.368Z,985.6
2017-12-27T05:39:18.775Z,985.5
2017-12-27T05:40:21.180Z,985.5
2017-12-27T05:41:23.594Z,985.6
2017-12-27T05:42:25.995Z,985.7
2017-12-27T05:43:28.398Z,985.7
2017-12-27T05:44:31.086Z,985.6
2017-12-27T05:45:33.491Z,985.6
2017-12-27T05:46:35.887Z,985.6
2017-12-27T05:47:38.300Z,985.5
2017-12-27T05:48:40.704Z,985.6
2017-12-27T05:49:43.107Z,985.5
2017-12-27T05:50:45.519Z,985.5
2017-12-27T05:51:47.932Z,985.5
2017-12-27T05:52:50.332Z,985.5
2017-12-27T05:53:52.744Z,985.6
2017-12-27T05:54:55.147Z,985.6
2017-12-27T05:55:57.557Z,985.5
2017-12-27T05:56:59.974Z,985.5
2017-12-27T05:58:02.376Z,985.5
2017-12-27T05:59:05.051Z,985.4
2017-12-27T06:00:07.459Z,985.4
2017-12-27T06:01:09.861Z,985.4
2017-12-27T06:02:12.553Z,985.4
2017-12-27T06:03:14.960Z,985.4
2017-12-27T06:04:17.633Z,985.5
2017-12-27T06:05:20.041Z,985.5
2017-12-27T06:06:22.459Z,985.5
2017-12-27T06:07:25.152Z,985.4
2017-12-27T06:08:27.563Z,985.4
2017-12-27T06:09:29.964Z,985.3
2017-12-27T06:10:32.362Z,985.3
2017-12-27T06:11:34.768Z,985.3
2017-12-27T06:12:37.178Z,985.3
2017-12-27T06:13:39.575Z,985.3
2017-12-27T06:14:42.834Z,985.2
2017-12-27T06:15:45.244Z,985.2
2017-12-27T06:16:47.939Z,985.2
2017-12-27T06:17:50.356Z,985.2
2017-12-27T06:18:52.760Z,985.2
2017-12-27T06:19:55.160Z,985.3
2017-12-27T06:20:57.579Z,985.2
2017-12-27T06:21:59.980Z,985.2
2017-12-27T06:23:02.393Z,985.1
2017-12-27T06:24:04.791Z,985.1
2017-12-27T06:25:07.201Z,985.2
2017-12-27T06:26:09.604Z,985.1
2017-12-27T06:27:12.010Z,985.1
2017-12-27T06:28:14.403Z,985.1
2017-12-27T06:29:16.809Z,985.1
2017-12-27T06:30:19.226Z,985.1
2017-12-27T06:31:21.630Z,985.1
2017-12-27T06:32:24.043Z,985
2017-12-27T06:33:26.451Z,985
2017-12-27T06:34:28.864Z,985
2017-12-27T06:35:31.279Z,985
2017-12-27T06:36:33.687Z,985
2017-12-27T06:37:36.087Z,985
2017-12-27T06:38:38.493Z,985
2017-12-27T06:39:40.900Z,985
2017-12-27T06:40:43.299Z,985
2017-12-27T06:41:45.702Z,985
2017-12-27T06:42:48.118Z,985
2017-12-27T06:43:50.527Z,985
2017-12-27T06:44:53.197Z,985
2017-12-27T06:45:56.172Z,985
2017-12-27T06:46:58.576Z,984.9
2017-12-27T06:48:00.985Z,985
2017-12-27T06:49:03.388Z,984.9
2017-12-27T06:50:05.787Z,985
2017-12-27T06:51:08.185Z,984.9
2017-12-27T06:52:10.610Z,984.8
2017-12-27T06:53:13.005Z,984.8
2017-12-27T06:54:15.415Z,984.8
2017-12-27T06:55:17.827Z,984.8
2017-12-27T06:56:20.513Z,984.8
2017-12-27T06:57:22.925Z,984.8
2017-12-27T06:58:25.324Z,984.7
2017-12-27T06:59:27.732Z,984.7
2017-12-27T07:00:30.138Z,984.6
2017-12-27T07:01:32.832Z,984.6
2017-12-27T07:02:35.233Z,984.7
2017-12-27T07:03:37.646Z,984.6
2017-12-27T07:04:40.048Z,984.6
2017-12-27T07:05:42.732Z,984.6
2017-12-27T07:06:45.142Z,984.6
2017-12-27T07:07:47.547Z,984.5
2017-12-27T07:08:49.942Z,984.5
2017-12-27T07:09:52.348Z,984.6
2017-12-27T07:10:54.759Z,984.6
2017-12-27T07:11:57.159Z,984.6
2017-12-27T07:12:59.561Z,984.5
2017-12-27T07:14:01.968Z,984.5
2017-12-27T07:15:04.375Z,984.5
2017-12-27T07:16:07.079Z,984.5
2017-12-27T07:17:09.489Z,984.4
2017-12-27T07:18:12.162Z,984.4
2017-12-27T07:19:14.584Z,984.3
2017-12-27T07:20:16.981Z,984.3
2017-12-27T07:21:19.390Z,984.3
2017-12-27T07:22:21.805Z,984.3
2017-12-27T07:23:24.497Z,984.3
2017-12-27T07:24:27.189Z,984.3
2017-12-27T07:25:29.598Z,984.3
2017-12-27T07:26:32.573Z,984.3
2017-12-27T07:27:34.961Z,984.2
2017-12-27T07:28:37.379Z,984.3
2017-12-27T07:29:39.783Z,984.3
2017-12-27T07:30:42.189Z,984.3
2017-12-27T07:31:44.888Z,984.3
2017-12-27T07:32:47.290Z,984.3
2017-12-27T07:33:49.691Z,984.3
2017-12-27T07:34:52.142Z,984.2
2017-12-27T07:35:54.505Z,984.2
2017-12-27T07:36:57.197Z,984.1
2017-12-27T07:37:59.605Z,984.1
2017-12-27T07:39:02.303Z,984.1
2017-12-27T07:40:04.716Z,984.1
2017-12-27T07:41:07.415Z,984.1
2017-12-27T07:42:10.107Z,984.1
2017-12-27T07:43:12.527Z,984.1
2017-12-27T07:44:14.930Z,984.1
2017-12-27T07:45:17.336Z,984
2017-12-27T07:46:19.749Z,984
2017-12-27T07:47:22.156Z,984
2017-12-27T07:48:24.556Z,983.9
2017-12-27T07:49:26.969Z,983.9
2017-12-27T07:50:29.650Z,983.9
2017-12-27T07:51:32.073Z,983.9
2017-12-27T07:52:34.587Z,983.9
2017-12-27T07:53:37.014Z,983.8
2017-12-27T07:54:39.426Z,983.8
2017-12-27T07:55:41.844Z,983.8
2017-12-27T07:56:44.271Z,983.8
2017-12-27T07:57:46.966Z,983.8
2017-12-27T07:58:49.381Z,983.8
2017-12-27T07:59:51.800Z,983.8
2017-12-27T08:00:54.198Z,983.8
2017-12-27T08:01:56.604Z,983.7
2017-12-27T08:02:59.023Z,983.6
2017-12-27T08:04:01.438Z,983.6
2017-12-27T08:05:04.122Z,983.6
2017-12-27T08:06:06.531Z,983.5
2017-12-27T08:07:08.945Z,983.5
2017-12-27T08:08:11.372Z,983.5
2017-12-27T08:09:13.778Z,983.4
2017-12-27T08:10:16.188Z,983.4
2017-12-27T08:11:18.593Z,983.4
2017-12-27T08:12:21.002Z,983.4
2017-12-27T08:13:23.413Z,983.3
2017-12-27T08:14:25.827Z,983.3
2017-12-27T08:15:28.223Z,983.3
2017-12-27T08:16:30.639Z,983.4
2017-12-27T08:17:33.052Z,983.4
2017-12-27T08:18:35.467Z,983.3
2017-12-27T08:19:37.885Z,983.3
2017-12-27T08:20:40.292Z,983.3
2017-12-27T08:21:42.691Z,983.3
2017-12-27T08:22:45.109Z,983.2
2017-12-27T08:23:47.797Z,983.2
2017-12-27T08:24:50.211Z,983.2
2017-12-27T08:25:52.625Z,983.2
2017-12-27T08:26:55.034Z,983.2
2017-12-27T08:27:57.730Z,983.3
2017-12-27T08:29:00.137Z,983.2
2017-12-27T08:30:02.542Z,983.1
2017-12-27T08:31:05.237Z,983
2017-12-27T08:32:07.645Z,983
2017-12-27T08:33:10.059Z,983
2017-12-27T08:34:12.647Z,983
2017-12-27T08:35:15.051Z,983
2017-12-27T08:36:17.453Z,983.1
2017-12-27T08:37:19.882Z,983
2017-12-27T08:38:22.308Z,983
2017-12-27T08:39:24.717Z,982.9
2017-12-27T08:40:27.126Z,982.9
2017-12-27T08:41:29.519Z,982.9
2017-12-27T08:42:31.925Z,982.8
2017-12-27T08:43:34.351Z,982.8
2017-12-27T08:44:36.752Z,982.8
2017-12-27T08:45:39.168Z,982.8
2017-12-27T08:46:41.603Z,982.8
2017-12-27T08:47:43.986Z,982.7
2017-12-27T08:48:46.682Z,982.7
2017-12-27T08:49:49.094Z,982.7
2017-12-27T08:50:51.492Z,982.7
2017-12-27T08:51:53.900Z,982.7
2017-12-27T08:52:56.311Z,982.7
2017-12-27T08:53:58.711Z,982.8
2017-12-27T08:55:01.124Z,982.8
2017-12-27T08:56:03.526Z,982.8
2017-12-27T08:57:05.932Z,982.7
2017-12-27T08:58:08.350Z,982.7
2017-12-27T08:59:11.048Z,982.7
2017-12-27T09:00:13.454Z,982.7
2017-12-27T09:01:15.867Z,982.7
2017-12-27T09:02:18.281Z,982.7
2017-12-27T09:03:20.692Z,982.7
2017-12-27T09:04:23.111Z,982.7
2017-12-27T09:05:25.504Z,982.7
2017-12-27T09:06:27.913Z,982.7
2017-12-27T09:07:30.345Z,982.7
2017-12-27T09:08:33.025Z,982.7
2017-12-27T09:09:35.424Z,982.7
2017-12-27T09:10:37.837Z,982.8
2017-12-27T09:11:40.532Z,982.8
2017-12-27T09:12:42.946Z,982.9
2017-12-27T09:13:45.361Z,982.8
2017-12-27T09:14:48.781Z,982.8
2017-12-27T09:15:51.795Z,982.8
2017-12-27T09:16:54.210Z,982.8
2017-12-27T09:17:56.934Z,982.8
2017-12-27T09:18:59.337Z,982.8
2017-12-27T09:20:01.757Z,982.7
2017-12-27T09:21:04.160Z,982.8
2017-12-27T09:22:06.578Z,982.7
2017-12-27T09:23:08.992Z,982.7
2017-12-27T09:24:11.398Z,982.7
2017-12-27T09:25:13.806Z,982.7
2017-12-27T09:26:16.498Z,982.6
2017-12-27T09:27:18.908Z,982.6
2017-12-27T09:28:21.324Z,982.6
2017-12-27T09:29:24.026Z,982.5
2017-12-27T09:30:26.431Z,982.4
2017-12-27T09:31:28.856Z,982.5
2017-12-27T09:32:31.428Z,982.5
2017-12-27T09:33:33.995Z,982.4
2017-12-27T09:34:36.402Z,982.4
2017-12-27T09:35:38.807Z,982.4
2017-12-27T09:36:41.537Z,982.4
2017-12-27T09:37:43.902Z,982.3
2017-12-27T09:38:46.310Z,982.4
2017-12-27T09:39:48.745Z,982.4
2017-12-27T09:40:51.148Z,982.4
2017-12-27T09:41:53.548Z,982.3
2017-12-27T09:42:55.970Z,982.4
2017-12-27T09:43:58.656Z,982.3
2017-12-27T09:45:01.068Z,982.5
2017-12-27T09:46:03.755Z,982.4
2017-12-27T09:47:06.165Z,982.3
2017-12-27T09:48:08.579Z,982.3
2017-12-27T09:49:10.995Z,982.3
2017-12-27T09:50:13.391Z,982.2
2017-12-27T09:51:15.811Z,982.1
2017-12-27T09:52:18.220Z,982.3
2017-12-27T09:53:20.764Z,982
2017-12-27T09:54:24.086Z,982.2
2017-12-27T09:55:26.507Z,982.2
2017-12-27T09:56:28.972Z,982.2
2017-12-27T09:57:31.379Z,982.3
2017-12-27T09:58:34.076Z,982.3
2017-12-27T09:59:36.508Z,982.3
2017-12-27T10:00:39.242Z,982.3
2017-12-27T10:01:41.937Z,982.2
2017-12-27T10:02:44.623Z,982.3
2017-12-27T10:03:47.042Z,982.2
2017-12-27T10:04:49.729Z,982.2
2017-12-27T10:05:52.139Z,982.2
2017-12-27T10:06:54.690Z,982.2
2017-12-27T10:07:57.099Z,982.2
2017-12-27T10:08:59.802Z,982.2
2017-12-27T10:10:02.199Z,982.2
2017-12-27T10:11:04.615Z,982.2
2017-12-27T10:12:07.031Z,982.2
2017-12-27T10:13:09.437Z,982.2
2017-12-27T10:14:11.855Z,982.3
2017-12-27T10:15:14.282Z,982.2
2017-12-27T10:16:16.675Z,982.1
2017-12-27T10:17:19.088Z,982.2
2017-12-27T10:18:21.495Z,982.3
2017-12-27T10:19:23.910Z,982.2
2017-12-27T10:20:26.320Z,982.2
2017-12-27T10:21:28.731Z,982.1
2017-12-27T10:22:31.135Z,982.1
2017-12-27T10:23:33.544Z,982.2
2017-12-27T10:24:36.247Z,982
2017-12-27T10:25:38.665Z,982.1
2017-12-27T10:26:41.080Z,982.1
2017-12-27T10:27:43.494Z,982
2017-12-27T10:28:45.902Z,982.1
2017-12-27T10:29:48.326Z,982
2017-12-27T10:30:50.732Z,982
2017-12-27T10:31:53.141Z,982
2017-12-27T10:32:55.843Z,981.9
2017-12-27T10:33:58.251Z,981.9
2017-12-27T10:35:00.657Z,982
2017-12-27T10:36:03.110Z,981.9
2017-12-27T10:37:05.929Z,981.9
2017-12-27T10:38:09.165Z,981.9
2017-12-27T10:39:11.825Z,981.9
2017-12-27T10:40:14.517Z,981.9
2017-12-27T10:41:17.203Z,981.9
2017-12-27T10:42:19.858Z,981.9
2017-12-27T10:43:22.536Z,981.9
2017-12-27T10:44:25.323Z,981.9
2017-12-27T10:45:28.267Z,981.9
2017-12-27T10:46:30.977Z,982
2017-12-27T10:47:34.077Z,981.9
2017-12-27T10:48:37.180Z,981.8
2017-12-27T10:49:40.010Z,981.8
2017-12-27T10:50:42.796Z,981.9
2017-12-27T10:51:45.605Z,981.8
2017-12-27T10:52:48.739Z,981.7
2017-12-27T10:53:51.537Z,981.8
2017-12-27T10:54:54.710Z,981.7
2017-12-27T10:55:57.626Z,981.8
2017-12-27T10:57:00.424Z,981.9
2017-12-27T10:58:03.266Z,981.8
2017-12-27T10:59:06.147Z,981.8
2017-12-27T11:00:08.867Z,981.8
2017-12-27T11:01:11.747Z,981.9
2017-12-27T11:02:14.677Z,982
2017-12-27T11:03:17.516Z,981.7
2017-12-27T11:04:20.329Z,981.7
2017-12-27T11:05:23.091Z,981.8
2017-12-27T11:06:25.846Z,981.8
2017-12-27T11:07:28.552Z,981.8
2017-12-27T11:08:31.719Z,981.8
2017-12-27T11:09:34.582Z,981.7
2017-12-27T11:10:37.685Z,981.7
2017-12-27T11:11:40.648Z,981.6
2017-12-27T11:12:43.284Z,981.6
2017-12-27T11:13:46.117Z,981.6
2017-12-27T11:14:48.935Z,981.6
2017-12-27T11:15:51.684Z,981.5
2017-12-27T11:16:54.095Z,981.5
2017-12-27T11:17:56.512Z,981.4
2017-12-27T11:18:59.008Z,981.5
2017-12-27T11:20:02.138Z,981.4
2017-12-27T11:21:04.534Z,981.4
2017-12-27T11:22:06.947Z,981.3
2017-12-27T11:23:09.357Z,981.3
2017-12-27T11:24:11.768Z,981.3
2017-12-27T11:25:14.182Z,981.3
2017-12-27T11:26:16.627Z,981.3
2017-12-27T11:27:19.071Z,981.2
2017-12-27T11:28:21.497Z,981.1
2017-12-27T11:29:24.186Z,981.2
2017-12-27T11:30:26.874Z,981.2
2017-12-27T11:31:29.283Z,981.1
2017-12-27T11:32:31.701Z,981.1
2017-12-27T11:33:34.115Z,981.1
2017-12-27T11:34:36.537Z,981
2017-12-27T11:35:39.256Z,981
2017-12-27T11:36:41.667Z,981
2017-12-27T11:37:44.071Z,981
2017-12-27T11:38:46.764Z,980.9
2017-12-27T11:39:49.182Z,980.9
2017-12-27T11:40:51.596Z,980.9
2017-12-27T11:41:53.999Z,981
2017-12-27T11:42:56.412Z,981
2017-12-27T11:43:58.825Z,980.9
2017-12-27T11:45:01.533Z,980.9
2017-12-27T11:46:03.954Z,980.9
2017-12-27T11:47:06.406Z,980.9
2017-12-27T11:48:09.100Z,980.8
2017-12-27T11:49:11.937Z,980.8
2017-12-27T11:50:14.524Z,980.8
2017-12-27T11:51:16.940Z,980.8
2017-12-27T11:52:19.350Z,980.8
2017-12-27T11:53:21.762Z,980.8
2017-12-27T11:54:24.181Z,980.8
2017-12-27T11:55:26.869Z,980.8
2017-12-27T11:56:29.280Z,980.9
2017-12-27T11:57:31.734Z,980.9
2017-12-27T11:58:34.220Z,981
2017-12-27T11:59:36.960Z,981
2017-12-27T12:00:39.387Z,981
2017-12-27T12:01:41.787Z,981
2017-12-27T12:02:44.220Z,980.9
2017-12-27T12:03:46.631Z,980.8
2017-12-27T12:04:49.094Z,980.8
2017-12-27T12:05:51.609Z,980.8
2017-12-27T12:06:54.017Z,980.8
2017-12-27T12:07:56.421Z,980.7
2017-12-27T12:08:58.850Z,980.7
2017-12-27T12:10:01.261Z,980.6
2017-12-27T12:11:03.679Z,980.6
2017-12-27T12:12:06.375Z,980.6
2017-12-27T12:13:08.783Z,980.5
2017-12-27T12:14:11.290Z,980.5
2017-12-27T12:15:13.806Z,980.4
2017-12-27T12:16:16.410Z,980.4
2017-12-27T12:17:18.822Z,980.3
2017-12-27T12:18:21.215Z,980.3
2017-12-27T12:19:23.643Z,980.3
2017-12-27T12:20:26.318Z,980.3
2017-12-27T12:21:28.728Z,980.2
2017-12-27T12:22:31.424Z,980.2
2017-12-27T12:23:33.837Z,980.2
2017-12-27T12:24:36.532Z,980.2
2017-12-27T12:25:39.231Z,980.2
2017-12-27T12:26:41.636Z,980.2
2017-12-27T12:27:44.347Z,980.1
2017-12-27T12:28:46.765Z,980.1
2017-12-27T12:29:49.173Z,980.1
2017-12-27T12:30:51.585Z,980
2017-12-27T12:31:54.253Z,980
2017-12-27T12:32:56.676Z,980
2017-12-27T12:33:59.432Z,979.9
2017-12-27T12:35:02.454Z,980
2017-12-27T12:36:04.859Z,980
2017-12-27T12:37:07.265Z,979.9
2017-12-27T12:38:09.677Z,979.9
2017-12-27T12:39:12.090Z,979.8
2017-12-27T12:40:14.780Z,979.7
2017-12-27T12:41:17.202Z,979.7
2017-12-27T12:42:19.601Z,979.7
2017-12-27T12:43:22.014Z,979.8
2017-12-27T12:44:24.436Z,979.7
2017-12-27T12:45:26.843Z,979.8
2017-12-27T12:46:29.260Z,979.7
2017-12-27T12:47:31.677Z,979.7
2017-12-27T12:48:34.087Z,979.7
2017-12-27T12:49:36.497Z,979.6
2017-12-27T12:50:39.194Z,979.7
2017-12-27T12:51:41.595Z,979.7
2017-12-27T12:52:44.002Z,979.6
2017-12-27T12:53:46.426Z,979.6
2017-12-27T12:54:48.837Z,979.7
2017-12-27T12:55:51.253Z,979.6
2017-12-27T12:56:53.658Z,979.6
2017-12-27T12:57:56.073Z,979.6
2017-12-27T12:58:58.782Z,979.6
2017-12-27T13:00:01.189Z,979.6
2017-12-27T13:01:03.603Z,979.6
2017-12-27T13:02:06.294Z,979.6
2017-12-27T13:03:08.711Z,979.6
2017-12-27T13:04:11.123Z,979.6
2017-12-27T13:05:13.814Z,979.6
2017-12-27T13:06:16.239Z,979.5
2017-12-27T13:07:18.657Z,979.5
2017-12-27T13:08:21.342Z,979.5
2017-12-27T13:09:24.063Z,979.5
2017-12-27T13:10:26.781Z,979.6
2017-12-27T13:11:29.192Z,979.5
2017-12-27T13:12:31.599Z,979.4
2017-12-27T13:13:34.006Z,979.4
2017-12-27T13:14:36.408Z,979.4
2017-12-27T13:15:38.839Z,979.3
2017-12-27T13:16:41.249Z,979.3
2017-12-27T13:17:43.652Z,979.3
2017-12-27T13:18:46.344Z,979.3
2017-12-27T13:19:48.758Z,979.4
2017-12-27T13:20:51.449Z,979.4
2017-12-27T13:21:53.916Z,979.3
2017-12-27T13:22:56.572Z,979.3
2017-12-27T13:23:59.020Z,979.3
2017-12-27T13:25:01.577Z,979.4
2017-12-27T13:26:04.332Z,979.5
2017-12-27T13:27:07.252Z,979.5
2017-12-27T13:28:09.660Z,979.4
2017-12-27T13:29:12.067Z,979.4
2017-12-27T13:30:14.827Z,979.5
2017-12-27T13:31:17.234Z,979.5